sensor_id;sensor_type;location;lat;lon;timestamp;temperature;humidity
45945;DHT22;31655;48.972;10.686;2022-09-25T00:00:56;11.30;99.90
45945;DHT22;31655;48.972;10.686;2022-09-25T00:03:23;11.30;99.90
45945;DHT22;31655;48.972;10.686;2022-09-25T00:05:50;12.00;99.90
45945;DHT22;31655;48.972;10.686;2022-09-25T00:08:17;11.20;99.90
45945;DHT22;31655;48.972;10.686;2022-09-25T00:10:48;11.20;99.90
45945;DHT22;31655;48.972;10.686;2022-09-25T00:13:16;11.20;99.90
45945;DHT22;31655;48.972;10.686;2022-09-25T00:16:00;11.20;99.90
45945;DHT22;31655;48.972;10.686;2022-09-25T00:18:27;11.30;99.90
45945;DHT22;31655;48.972;10.686;2022-09-25T00:21:13;11.20;99.90
45945;DHT22;31655;48.972;10.686;2022-09-25T00:23:42;11.20;99.90
45945;DHT22;31655;48.972;10.686;2022-09-25T00:26:09;11.30;99.90
45945;DHT22;31655;48.972;10.686;2022-09-25T00:28:35;11.20;99.90
45945;DHT22;31655;48.972;10.686;2022-09-25T00:31:02;11.30;99.90
45945;DHT22;31655;48.972;10.686;2022-09-25T00:33:29;11.30;99.90
45945;DHT22;31655;48.972;10.686;2022-09-25T00:35:55;11.30;99.90
45945;DHT22;31655;48.972;10.686;2022-09-25T00:38:24;11.20;99.90
45945;DHT22;31655;48.972;10.686;2022-09-25T00:40:50;11.20;99.90
45945;DHT22;31655;48.972;10.686;2022-09-25T00:43:37;14.60;99.90
45945;DHT22;31655;48.972;10.686;2022-09-25T00:48:35;11.20;99.90
45945;DHT22;31655;48.972;10.686;2022-09-25T00:51:02;11.10;99.90
45945;DHT22;31655;48.972;10.686;2022-09-25T00:53:33;11.20;99.90
45945;DHT22;31655;48.972;10.686;2022-09-25T00:56:02;11.10;99.90
45945;DHT22;31655;48.972;10.686;2022-09-25T00:58:30;11.10;99.90
45945;DHT22;31655;48.972;10.686;2022-09-25T01:00:57;11.10;99.90
45945;DHT22;31655;48.972;10.686;2022-09-25T01:03:23;11.10;99.90
45945;DHT22;31655;48.972;10.686;2022-09-25T01:05:50;11.10;99.90
45945;DHT22;31655;48.972;10.686;2022-09-25T01:08:19;11.20;99.90
45945;DHT22;31655;48.972;10.686;2022-09-25T01:10:46;13.00;99.90
45945;DHT22;31655;48.972;10.686;2022-09-25T01:13:15;11.20;99.90
45945;DHT22;31655;48.972;10.686;2022-09-25T01:15:58;11.20;99.90
45945;DHT22;31655;48.972;10.686;2022-09-25T01:18:52;11.30;99.90
45945;DHT22;31655;48.972;10.686;2022-09-25T01:29:40;11.40;99.90
45945;DHT22;31655;48.972;10.686;2022-09-25T01:37:42;11.50;99.90
45945;DHT22;31655;48.972;10.686;2022-09-25T01:40:24;11.50;99.90
45945;DHT22;31655;48.972;10.686;2022-09-25T01:43:01;11.60;99.90
45945;DHT22;31655;48.972;10.686;2022-09-25T01:45:49;11.50;99.90
45945;DHT22;31655;48.972;10.686;2022-09-25T01:48:18;11.50;99.90
45945;DHT22;31655;48.972;10.686;2022-09-25T01:50:50;11.40;99.90
45945;DHT22;31655;48.972;10.686;2022-09-25T01:53:22;11.40;99.90
45945;DHT22;31655;48.972;10.686;2022-09-25T01:55:54;11.40;99.90
45945;DHT22;31655;48.972;10.686;2022-09-25T01:58:31;11.40;99.90
45945;DHT22;31655;48.972;10.686;2022-09-25T02:01:03;11.40;99.90
45945;DHT22;31655;48.972;10.686;2022-09-25T02:03:40;11.40;99.90
45945;DHT22;31655;48.972;10.686;2022-09-25T02:06:09;11.40;99.90
45945;DHT22;31655;48.972;10.686;2022-09-25T02:08:41;11.40;99.90
45945;DHT22;31655;48.972;10.686;2022-09-25T02:11:08;11.40;99.90
45945;DHT22;31655;48.972;10.686;2022-09-25T02:13:56;11.40;99.90
45945;DHT22;31655;48.972;10.686;2022-09-25T02:16:29;11.40;99.90
45945;DHT22;31655;48.972;10.686;2022-09-25T02:18:57;11.50;99.90
45945;DHT22;31655;48.972;10.686;2022-09-25T02:24:18;11.40;99.90
45945;DHT22;31655;48.972;10.686;2022-09-25T02:26:45;11.40;99.90
45945;DHT22;31655;48.972;10.686;2022-09-25T02:29:11;11.30;99.90
45945;DHT22;31655;48.972;10.686;2022-09-25T02:34:18;11.30;99.90
45945;DHT22;31655;48.972;10.686;2022-09-25T02:36:43;11.30;99.90
45945;DHT22;31655;48.972;10.686;2022-09-25T02:39:10;11.30;99.90
45945;DHT22;31655;48.972;10.686;2022-09-25T02:57:55;11.30;99.90
45945;DHT22;31655;48.972;10.686;2022-09-25T03:00:22;11.30;99.90
45945;DHT22;31655;48.972;10.686;2022-09-25T03:02:51;11.20;99.90
45945;DHT22;31655;48.972;10.686;2022-09-25T03:05:18;11.20;99.90
45945;DHT22;31655;48.972;10.686;2022-09-25T03:07:44;11.30;99.90
45945;DHT22;31655;48.972;10.686;2022-09-25T03:10:30;11.20;99.90
45945;DHT22;31655;48.972;10.686;2022-09-25T03:12:56;11.30;99.90
45945;DHT22;31655;48.972;10.686;2022-09-25T03:15:23;11.30;99.90
45945;DHT22;31655;48.972;10.686;2022-09-25T03:17:49;11.20;99.90
45945;DHT22;31655;48.972;10.686;2022-09-25T03:20:16;11.20;99.90
45945;DHT22;31655;48.972;10.686;2022-09-25T03:22:42;11.30;99.90
45945;DHT22;31655;48.972;10.686;2022-09-25T03:25:07;11.30;99.90
45945;DHT22;31655;48.972;10.686;2022-09-25T03:29:59;11.20;99.90
45945;DHT22;31655;48.972;10.686;2022-09-25T03:34:50;11.30;99.90
45945;DHT22;31655;48.972;10.686;2022-09-25T03:37:16;11.20;99.90
45945;DHT22;31655;48.972;10.686;2022-09-25T03:39:41;11.20;99.90
45945;DHT22;31655;48.972;10.686;2022-09-25T03:49:25;11.20;99.90
45945;DHT22;31655;48.972;10.686;2022-09-25T03:51:50;11.20;99.90
45945;DHT22;31655;48.972;10.686;2022-09-25T03:54:16;11.20;99.90
45945;DHT22;31655;48.972;10.686;2022-09-25T03:56:41;11.20;99.90
45945;DHT22;31655;48.972;10.686;2022-09-25T03:59:07;11.20;99.90
45945;DHT22;31655;48.972;10.686;2022-09-25T04:01:32;11.20;99.90
45945;DHT22;31655;48.972;10.686;2022-09-25T04:03:58;11.20;99.90
45945;DHT22;31655;48.972;10.686;2022-09-25T04:06:25;11.20;99.90
45945;DHT22;31655;48.972;10.686;2022-09-25T04:08:52;11.20;99.90
45945;DHT22;31655;48.972;10.686;2022-09-25T04:11:21;11.20;99.90
45945;DHT22;31655;48.972;10.686;2022-09-25T04:13:47;11.20;99.90
45945;DHT22;31655;48.972;10.686;2022-09-25T04:16:14;11.20;99.90
45945;DHT22;31655;48.972;10.686;2022-09-25T04:18:41;11.20;99.90
45945;DHT22;31655;48.972;10.686;2022-09-25T04:21:08;11.10;99.90
45945;DHT22;31655;48.972;10.686;2022-09-25T04:23:35;11.10;99.90
45945;DHT22;31655;48.972;10.686;2022-09-25T04:26:00;11.10;99.90
45945;DHT22;31655;48.972;10.686;2022-09-25T04:28:26;14.30;99.90
45945;DHT22;31655;48.972;10.686;2022-09-25T04:30:52;11.10;99.90
45945;DHT22;31655;48.972;10.686;2022-09-25T04:33:18;11.00;99.90
45945;DHT22;31655;48.972;10.686;2022-09-25T04:36:03;11.10;99.90
45945;DHT22;31655;48.972;10.686;2022-09-25T04:38:29;11.00;99.90
45945;DHT22;31655;48.972;10.686;2022-09-25T04:40:58;11.00;99.90
45945;DHT22;31655;48.972;10.686;2022-09-25T04:43:26;10.90;99.90
45945;DHT22;31655;48.972;10.686;2022-09-25T04:45:52;11.00;99.90
45945;DHT22;31655;48.972;10.686;2022-09-25T04:48:18;10.90;99.90
45945;DHT22;31655;48.972;10.686;2022-09-25T04:50:49;11.00;99.90
45945;DHT22;31655;48.972;10.686;2022-09-25T04:53:16;10.90;99.90
45945;DHT22;31655;48.972;10.686;2022-09-25T04:55:42;10.90;99.90
45945;DHT22;31655;48.972;10.686;2022-09-25T04:58:09;10.90;99.90
45945;DHT22;31655;48.972;10.686;2022-09-25T05:00:35;10.90;99.90
45945;DHT22;31655;48.972;10.686;2022-09-25T05:03:03;10.90;99.90
45945;DHT22;31655;48.972;10.686;2022-09-25T05:05:29;10.90;99.90
45945;DHT22;31655;48.972;10.686;2022-09-25T05:07:57;10.90;99.90
45945;DHT22;31655;48.972;10.686;2022-09-25T05:10:24;12.80;99.90
45945;DHT22;31655;48.972;10.686;2022-09-25T05:13:00;10.90;99.90
45945;DHT22;31655;48.972;10.686;2022-09-25T05:15:27;10.90;99.90
45945;DHT22;31655;48.972;10.686;2022-09-25T05:18:11;10.80;99.90
45945;DHT22;31655;48.972;10.686;2022-09-25T05:20:37;10.90;99.90
45945;DHT22;31655;48.972;10.686;2022-09-25T05:23:03;13.50;99.90
45945;DHT22;31655;48.972;10.686;2022-09-25T05:25:30;10.90;99.90
45945;DHT22;31655;48.972;10.686;2022-09-25T05:30:27;10.90;99.90
45945;DHT22;31655;48.972;10.686;2022-09-25T05:32:53;11.00;99.90
45945;DHT22;31655;48.972;10.686;2022-09-25T05:35:20;10.90;99.90
45945;DHT22;31655;48.972;10.686;2022-09-25T05:37:46;10.90;99.90
45945;DHT22;31655;48.972;10.686;2022-09-25T05:40:13;10.90;99.90
45945;DHT22;31655;48.972;10.686;2022-09-25T05:42:43;10.90;99.90
45945;DHT22;31655;48.972;10.686;2022-09-25T05:45:12;13.90;99.90
45945;DHT22;31655;48.972;10.686;2022-09-25T05:47:39;12.40;99.90
45945;DHT22;31655;48.972;10.686;2022-09-25T05:50:05;10.90;99.90
45945;DHT22;31655;48.972;10.686;2022-09-25T05:52:31;11.00;99.90
45945;DHT22;31655;48.972;10.686;2022-09-25T05:54:56;10.90;99.90
45945;DHT22;31655;48.972;10.686;2022-09-25T05:57:22;13.40;99.90
45945;DHT22;31655;48.972;10.686;2022-09-25T05:59:48;11.00;99.90
45945;DHT22;31655;48.972;10.686;2022-09-25T06:02:14;10.90;99.90
45945;DHT22;31655;48.972;10.686;2022-09-25T06:04:40;10.90;99.90
45945;DHT22;31655;48.972;10.686;2022-09-25T06:12:01;11.00;99.90
45945;DHT22;31655;48.972;10.686;2022-09-25T06:14:26;11.00;99.90
45945;DHT22;31655;48.972;10.686;2022-09-25T06:16:52;11.00;99.90
45945;DHT22;31655;48.972;10.686;2022-09-25T06:24:11;11.10;99.90
45945;DHT22;31655;48.972;10.686;2022-09-25T06:26:37;11.20;99.90
45945;DHT22;31655;48.972;10.686;2022-09-25T06:29:03;11.20;99.90
45945;DHT22;31655;48.972;10.686;2022-09-25T06:36:21;11.70;99.90
45945;DHT22;31655;48.972;10.686;2022-09-25T06:38:47;12.00;99.90
45945;DHT22;31655;48.972;10.686;2022-09-25T06:41:14;11.90;99.90
45945;DHT22;31655;48.972;10.686;2022-09-25T06:46:05;12.40;99.90
45945;DHT22;31655;48.972;10.686;2022-09-25T06:48:31;12.70;99.90
45945;DHT22;31655;48.972;10.686;2022-09-25T06:50:57;14.20;99.90
45945;DHT22;31655;48.972;10.686;2022-09-25T06:55:51;14.60;99.90
45945;DHT22;31655;48.972;10.686;2022-09-25T06:58:21;14.60;99.90
45945;DHT22;31655;48.972;10.686;2022-09-25T07:00:54;17.80;99.90
45945;DHT22;31655;48.972;10.686;2022-09-25T07:03:20;15.00;99.90
45945;DHT22;31655;48.972;10.686;2022-09-25T07:06:07;15.00;99.90
45945;DHT22;31655;48.972;10.686;2022-09-25T07:08:33;15.00;99.90
45945;DHT22;31655;48.972;10.686;2022-09-25T07:10:59;14.90;99.90
45945;DHT22;31655;48.972;10.686;2022-09-25T07:13:28;14.70;99.90
45945;DHT22;31655;48.972;10.686;2022-09-25T07:16:06;14.30;99.90
45945;DHT22;31655;48.972;10.686;2022-09-25T07:18:32;14.10;99.90
45945;DHT22;31655;48.972;10.686;2022-09-25T07:21:03;14.00;99.90
45945;DHT22;31655;48.972;10.686;2022-09-25T07:23:29;13.70;99.90
45945;DHT22;31655;48.972;10.686;2022-09-25T07:25:56;13.70;99.90
45945;DHT22;31655;48.972;10.686;2022-09-25T07:28:22;13.80;99.90
45945;DHT22;31655;48.972;10.686;2022-09-25T07:30:48;13.90;99.90
45945;DHT22;31655;48.972;10.686;2022-09-25T07:33:14;16.80;99.90
45945;DHT22;31655;48.972;10.686;2022-09-25T07:38:06;14.00;99.90
45945;DHT22;31655;48.972;10.686;2022-09-25T07:40:32;14.00;99.90
45945;DHT22;31655;48.972;10.686;2022-09-25T07:43:03;14.30;99.90
45945;DHT22;31655;48.972;10.686;2022-09-25T07:45:29;16.20;99.90
45945;DHT22;31655;48.972;10.686;2022-09-25T07:47:56;14.30;99.90
45945;DHT22;31655;48.972;10.686;2022-09-25T07:52:48;14.30;99.90
45945;DHT22;31655;48.972;10.686;2022-09-25T07:55:14;14.90;99.90
45945;DHT22;31655;48.972;10.686;2022-09-25T07:57:39;14.90;99.90
45945;DHT22;31655;48.972;10.686;2022-09-25T08:00:07;15.10;99.90
45945;DHT22;31655;48.972;10.686;2022-09-25T08:02:33;15.20;99.90
45945;DHT22;31655;48.972;10.686;2022-09-25T08:04:59;15.30;99.90
45945;DHT22;31655;48.972;10.686;2022-09-25T08:07:27;15.30;99.90
45945;DHT22;31655;48.972;10.686;2022-09-25T08:09:52;15.20;99.90
45945;DHT22;31655;48.972;10.686;2022-09-25T08:12:19;15.10;99.90
45945;DHT22;31655;48.972;10.686;2022-09-25T08:14:45;15.20;99.90
45945;DHT22;31655;48.972;10.686;2022-09-25T08:17:10;15.30;99.90
45945;DHT22;31655;48.972;10.686;2022-09-25T08:19:36;15.50;99.90
45945;DHT22;31655;48.972;10.686;2022-09-25T08:22:01;15.30;99.90
45945;DHT22;31655;48.972;10.686;2022-09-25T08:24:27;15.30;99.90
45945;DHT22;31655;48.972;10.686;2022-09-25T08:26:53;15.30;99.90
45945;DHT22;31655;48.972;10.686;2022-09-25T08:29:34;15.50;99.90
45945;DHT22;31655;48.972;10.686;2022-09-25T08:32:00;15.60;99.90
45945;DHT22;31655;48.972;10.686;2022-09-25T08:34:29;15.70;99.90
45945;DHT22;31655;48.972;10.686;2022-09-25T08:36:55;15.60;99.90
45945;DHT22;31655;48.972;10.686;2022-09-25T08:39:21;15.60;99.90
45945;DHT22;31655;48.972;10.686;2022-09-25T08:41:51;15.60;99.90
45945;DHT22;31655;48.972;10.686;2022-09-25T08:44:35;15.40;99.90
45945;DHT22;31655;48.972;10.686;2022-09-25T08:47:16;15.50;99.90
45945;DHT22;31655;48.972;10.686;2022-09-25T08:50:09;15.90;99.90
45945;DHT22;31655;48.972;10.686;2022-09-25T08:52:36;16.30;99.90
45945;DHT22;31655;48.972;10.686;2022-09-25T08:55:15;16.90;99.90
45945;DHT22;31655;48.972;10.686;2022-09-25T08:57:44;17.60;99.90
45945;DHT22;31655;48.972;10.686;2022-09-25T09:00:18;18.20;99.90
45945;DHT22;31655;48.972;10.686;2022-09-25T09:02:57;18.60;99.90
45945;DHT22;31655;48.972;10.686;2022-09-25T09:05:34;19.60;99.90
45945;DHT22;31655;48.972;10.686;2022-09-25T09:08:06;19.50;99.90
45945;DHT22;31655;48.972;10.686;2022-09-25T09:10:39;19.20;99.90
45945;DHT22;31655;48.972;10.686;2022-09-25T09:16:57;19.00;99.90
45945;DHT22;31655;48.972;10.686;2022-09-25T09:19:09;18.70;99.90
45945;DHT22;31655;48.972;10.686;2022-09-25T09:21:40;17.80;99.90
45945;DHT22;31655;48.972;10.686;2022-09-25T09:24:14;17.60;99.90
45945;DHT22;31655;48.972;10.686;2022-09-25T09:37:28;16.30;99.90
45945;DHT22;31655;48.972;10.686;2022-09-25T09:40:20;16.00;99.90
45945;DHT22;31655;48.972;10.686;2022-09-25T09:43:05;16.10;99.90
45945;DHT22;31655;48.972;10.686;2022-09-25T09:45:45;16.20;99.90
45945;DHT22;31655;48.972;10.686;2022-09-25T09:48:39;16.60;99.90
45945;DHT22;31655;48.972;10.686;2022-09-25T09:51:32;17.60;99.90
45945;DHT22;31655;48.972;10.686;2022-09-25T09:54:45;18.70;99.90
45945;DHT22;31655;48.972;10.686;2022-09-25T09:56:52;19.30;99.90
45945;DHT22;31655;48.972;10.686;2022-09-25T09:59:24;22.50;99.90
45945;DHT22;31655;48.972;10.686;2022-09-25T10:02:04;21.00;99.90
45945;DHT22;31655;48.972;10.686;2022-09-25T10:04:36;21.80;99.90
45945;DHT22;31655;48.972;10.686;2022-09-25T10:07:07;23.70;99.90
45945;DHT22;31655;48.972;10.686;2022-09-25T10:09:33;22.30;99.90
45945;DHT22;31655;48.972;10.686;2022-09-25T10:12:05;21.30;99.90
45945;DHT22;31655;48.972;10.686;2022-09-25T10:14:37;20.60;99.90
45945;DHT22;31655;48.972;10.686;2022-09-25T10:17:04;20.00;99.90
45945;DHT22;31655;48.972;10.686;2022-09-25T10:19:50;19.60;99.90
45945;DHT22;31655;48.972;10.686;2022-09-25T10:22:20;18.90;99.90
45945;DHT22;31655;48.972;10.686;2022-09-25T10:27:27;18.70;99.90
45945;DHT22;31655;48.972;10.686;2022-09-25T10:32:58;18.40;99.90
45945;DHT22;31655;48.972;10.686;2022-09-25T10:35:29;18.10;99.90
45945;DHT22;31655;48.972;10.686;2022-09-25T10:38:06;17.40;99.90
45945;DHT22;31655;48.972;10.686;2022-09-25T10:40:41;16.60;99.90
45945;DHT22;31655;48.972;10.686;2022-09-25T10:43:16;19.10;99.90
45945;DHT22;31655;48.972;10.686;2022-09-25T10:48:38;16.10;99.90
45945;DHT22;31655;48.972;10.686;2022-09-25T10:51:24;16.10;99.90
45945;DHT22;31655;48.972;10.686;2022-09-25T10:54:14;15.80;99.90
45945;DHT22;31655;48.972;10.686;2022-09-25T10:56:37;15.80;99.90
45945;DHT22;31655;48.972;10.686;2022-09-25T10:59:13;15.90;99.90
45945;DHT22;31655;48.972;10.686;2022-09-25T11:01:41;16.00;99.90
45945;DHT22;31655;48.972;10.686;2022-09-25T11:04:18;16.00;99.90
45945;DHT22;31655;48.972;10.686;2022-09-25T11:06:49;15.90;99.90
45945;DHT22;31655;48.972;10.686;2022-09-25T11:09:23;15.90;99.90
45945;DHT22;31655;48.972;10.686;2022-09-25T11:11:52;15.70;99.90
45945;DHT22;31655;48.972;10.686;2022-09-25T11:14:31;15.60;99.90
45945;DHT22;31655;48.972;10.686;2022-09-25T11:17:00;15.60;99.90
45945;DHT22;31655;48.972;10.686;2022-09-25T11:19:34;18.70;99.90
45945;DHT22;31655;48.972;10.686;2022-09-25T11:22:18;15.60;99.90
45945;DHT22;31655;48.972;10.686;2022-09-25T11:28:07;16.10;99.90
45945;DHT22;31655;48.972;10.686;2022-09-25T11:30:36;16.10;99.90
45945;DHT22;31655;48.972;10.686;2022-09-25T11:33:23;16.40;99.90
45945;DHT22;31655;48.972;10.686;2022-09-25T11:35:57;16.70;99.90
45945;DHT22;31655;48.972;10.686;2022-09-25T11:38:32;16.60;99.90
45945;DHT22;31655;48.972;10.686;2022-09-25T11:41:32;16.70;99.90
45945;DHT22;31655;48.972;10.686;2022-09-25T11:47:30;17.00;99.90
45945;DHT22;31655;48.972;10.686;2022-09-25T11:49:58;17.10;99.90
45945;DHT22;31655;48.972;10.686;2022-09-25T11:52:41;16.90;99.90
45945;DHT22;31655;48.972;10.686;2022-09-25T12:03:55;17.40;99.90
45945;DHT22;31655;48.972;10.686;2022-09-25T12:12:14;17.60;99.90
45945;DHT22;31655;48.972;10.686;2022-09-25T12:26:02;17.60;99.90
45945;DHT22;31655;48.972;10.686;2022-09-25T12:28:46;17.50;99.90
45945;DHT22;31655;48.972;10.686;2022-09-25T12:36:49;17.90;99.90
45945;DHT22;31655;48.972;10.686;2022-09-25T12:39:40;18.20;99.90
45945;DHT22;31655;48.972;10.686;2022-09-25T12:42:40;18.10;99.90
45945;DHT22;31655;48.972;10.686;2022-09-25T12:47:41;17.50;99.90
45945;DHT22;31655;48.972;10.686;2022-09-25T12:50:21;17.40;99.90
45945;DHT22;31655;48.972;10.686;2022-09-25T12:52:55;17.10;99.90
45945;DHT22;31655;48.972;10.686;2022-09-25T12:55:36;16.80;99.90
45945;DHT22;31655;48.972;10.686;2022-09-25T12:58:20;17.60;99.90
45945;DHT22;31655;48.972;10.686;2022-09-25T13:00:51;16.90;99.90
45945;DHT22;31655;48.972;10.686;2022-09-25T13:05:46;16.90;99.90
45945;DHT22;31655;48.972;10.686;2022-09-25T13:08:45;17.60;99.90
45945;DHT22;31655;48.972;10.686;2022-09-25T13:11:29;17.30;99.90
45945;DHT22;31655;48.972;10.686;2022-09-25T13:13:57;17.60;99.90
45945;DHT22;31655;48.972;10.686;2022-09-25T13:16:23;17.90;99.90
45945;DHT22;31655;48.972;10.686;2022-09-25T13:19:25;18.10;99.90
45945;DHT22;31655;48.972;10.686;2022-09-25T13:22:07;18.20;99.90
45945;DHT22;31655;48.972;10.686;2022-09-25T13:24:43;17.90;99.90
45945;DHT22;31655;48.972;10.686;2022-09-25T13:27:16;18.00;99.90
45945;DHT22;31655;48.972;10.686;2022-09-25T13:29:50;18.10;99.90
45945;DHT22;31655;48.972;10.686;2022-09-25T13:32:19;18.10;99.90
45945;DHT22;31655;48.972;10.686;2022-09-25T13:34:51;17.90;99.90
45945;DHT22;31655;48.972;10.686;2022-09-25T13:37:24;17.80;99.90
45945;DHT22;31655;48.972;10.686;2022-09-25T13:39:51;17.90;99.90
45945;DHT22;31655;48.972;10.686;2022-09-25T13:42:42;17.80;99.90
45945;DHT22;31655;48.972;10.686;2022-09-25T13:45:33;17.80;99.90
45945;DHT22;31655;48.972;10.686;2022-09-25T13:48:00;17.70;99.90
45945;DHT22;31655;48.972;10.686;2022-09-25T13:50:32;18.00;99.90
45945;DHT22;31655;48.972;10.686;2022-09-25T13:58:27;17.50;99.90
45945;DHT22;31655;48.972;10.686;2022-09-25T14:03:35;17.60;99.90
45945;DHT22;31655;48.972;10.686;2022-09-25T14:06:02;17.60;99.90
45945;DHT22;31655;48.972;10.686;2022-09-25T14:08:31;17.60;99.90
45945;DHT22;31655;48.972;10.686;2022-09-25T14:11:01;17.60;99.90
45945;DHT22;31655;48.972;10.686;2022-09-25T14:13:27;20.70;99.90
45945;DHT22;31655;48.972;10.686;2022-09-25T14:15:57;20.80;99.90
45945;DHT22;31655;48.972;10.686;2022-09-25T14:18:44;17.10;99.90
45945;DHT22;31655;48.972;10.686;2022-09-25T14:21:13;17.20;99.90
45945;DHT22;31655;48.972;10.686;2022-09-25T14:23:51;17.20;99.90
45945;DHT22;31655;48.972;10.686;2022-09-25T14:26:21;17.00;99.90
45945;DHT22;31655;48.972;10.686;2022-09-25T14:28:48;16.90;99.90
45945;DHT22;31655;48.972;10.686;2022-09-25T14:37:44;16.70;99.90
45945;DHT22;31655;48.972;10.686;2022-09-25T14:40:15;16.40;99.90
45945;DHT22;31655;48.972;10.686;2022-09-25T14:45:45;16.50;99.90
45945;DHT22;31655;48.972;10.686;2022-09-25T14:48:23;16.50;99.90
45945;DHT22;31655;48.972;10.686;2022-09-25T14:50:59;16.60;99.90
45945;DHT22;31655;48.972;10.686;2022-09-25T14:53:35;16.90;99.90
45945;DHT22;31655;48.972;10.686;2022-09-25T14:56:03;16.70;99.90
45945;DHT22;31655;48.972;10.686;2022-09-25T15:01:23;16.70;99.90
45945;DHT22;31655;48.972;10.686;2022-09-25T15:03:51;16.60;99.90
45945;DHT22;31655;48.972;10.686;2022-09-25T15:06:29;16.80;99.90
45945;DHT22;31655;48.972;10.686;2022-09-25T15:08:56;16.90;99.90
45945;DHT22;31655;48.972;10.686;2022-09-25T15:11:25;16.90;99.90
45945;DHT22;31655;48.972;10.686;2022-09-25T15:13:54;16.80;99.90
45945;DHT22;31655;48.972;10.686;2022-09-25T15:16:22;16.60;99.90
45945;DHT22;31655;48.972;10.686;2022-09-25T15:19:24;16.50;99.90
45945;DHT22;31655;48.972;10.686;2022-09-25T15:21:51;16.30;99.90
45945;DHT22;31655;48.972;10.686;2022-09-25T15:24:22;16.10;99.90
45945;DHT22;31655;48.972;10.686;2022-09-25T15:26:56;16.10;99.90
45945;DHT22;31655;48.972;10.686;2022-09-25T15:29:29;16.00;99.90
45945;DHT22;31655;48.972;10.686;2022-09-25T15:31:55;16.80;99.90
45945;DHT22;31655;48.972;10.686;2022-09-25T15:34:26;16.10;99.90
45945;DHT22;31655;48.972;10.686;2022-09-25T15:37:05;16.10;99.90
45945;DHT22;31655;48.972;10.686;2022-09-25T15:39:39;16.30;99.90
45945;DHT22;31655;48.972;10.686;2022-09-25T15:44:31;16.20;99.90
45945;DHT22;31655;48.972;10.686;2022-09-25T15:46:58;16.10;99.90
45945;DHT22;31655;48.972;10.686;2022-09-25T15:49:30;16.00;99.90
45945;DHT22;31655;48.972;10.686;2022-09-25T15:52:03;16.00;99.90
45945;DHT22;31655;48.972;10.686;2022-09-25T15:54:33;16.90;99.90
45945;DHT22;31655;48.972;10.686;2022-09-25T15:57:01;15.90;99.90
45945;DHT22;31655;48.972;10.686;2022-09-25T15:59:32;18.30;99.90
45945;DHT22;31655;48.972;10.686;2022-09-25T16:02:05;18.70;99.90
45945;DHT22;31655;48.972;10.686;2022-09-25T16:04:53;17.10;99.90
45945;DHT22;31655;48.972;10.686;2022-09-25T16:07:30;15.40;99.90
45945;DHT22;31655;48.972;10.686;2022-09-25T16:12:52;15.20;99.90
45945;DHT22;31655;48.972;10.686;2022-09-25T16:17:54;15.00;99.90
45945;DHT22;31655;48.972;10.686;2022-09-25T16:22:51;14.80;99.90
45945;DHT22;31655;48.972;10.686;2022-09-25T16:25:24;14.80;99.90
45945;DHT22;31655;48.972;10.686;2022-09-25T16:27:53;15.90;99.90
45945;DHT22;31655;48.972;10.686;2022-09-25T16:30:21;14.70;99.90
45945;DHT22;31655;48.972;10.686;2022-09-25T16:32:52;14.80;99.90
45945;DHT22;31655;48.972;10.686;2022-09-25T16:35:39;14.70;99.90
45945;DHT22;31655;48.972;10.686;2022-09-25T16:40:32;14.60;99.90
45945;DHT22;31655;48.972;10.686;2022-09-25T16:45:30;14.60;99.90
45945;DHT22;31655;48.972;10.686;2022-09-25T16:48:00;14.50;99.90
45945;DHT22;31655;48.972;10.686;2022-09-25T16:50:29;14.50;99.90
45945;DHT22;31655;48.972;10.686;2022-09-25T16:52:58;14.60;99.90
45945;DHT22;31655;48.972;10.686;2022-09-25T16:55:26;14.30;99.90
45945;DHT22;31655;48.972;10.686;2022-09-25T16:57:54;14.30;99.90
45945;DHT22;31655;48.972;10.686;2022-09-25T17:00:25;14.20;99.90
45945;DHT22;31655;48.972;10.686;2022-09-25T17:05:25;13.90;99.90
45945;DHT22;31655;48.972;10.686;2022-09-25T17:07:54;13.60;99.90
45945;DHT22;31655;48.972;10.686;2022-09-25T17:10:23;17.10;99.90
45945;DHT22;31655;48.972;10.686;2022-09-25T17:12:50;13.40;99.90
45945;DHT22;31655;48.972;10.686;2022-09-25T17:15:30;13.20;99.90
45945;DHT22;31655;48.972;10.686;2022-09-25T17:17:57;13.00;99.90
45945;DHT22;31655;48.972;10.686;2022-09-25T17:20:25;12.80;99.90
45945;DHT22;31655;48.972;10.686;2022-09-25T17:22:52;12.80;99.90
45945;DHT22;31655;48.972;10.686;2022-09-25T17:27:55;12.60;99.90
45945;DHT22;31655;48.972;10.686;2022-09-25T17:30:20;12.60;99.90
45945;DHT22;31655;48.972;10.686;2022-09-25T17:32:46;12.50;99.90
45945;DHT22;31655;48.972;10.686;2022-09-25T17:35:34;12.40;99.90
45945;DHT22;31655;48.972;10.686;2022-09-25T17:38:01;12.30;99.90
45945;DHT22;31655;48.972;10.686;2022-09-25T17:40:28;12.30;99.90
45945;DHT22;31655;48.972;10.686;2022-09-25T17:42:54;12.20;99.90
45945;DHT22;31655;48.972;10.686;2022-09-25T17:45:45;12.10;99.90
45945;DHT22;31655;48.972;10.686;2022-09-25T17:48:14;12.00;99.90
45945;DHT22;31655;48.972;10.686;2022-09-25T17:50:39;12.00;99.90
45945;DHT22;31655;48.972;10.686;2022-09-25T17:53:17;12.00;99.90
45945;DHT22;31655;48.972;10.686;2022-09-25T17:55:43;11.90;99.90
45945;DHT22;31655;48.972;10.686;2022-09-25T17:58:09;11.90;99.90
45945;DHT22;31655;48.972;10.686;2022-09-25T18:00:34;12.00;99.90
45945;DHT22;31655;48.972;10.686;2022-09-25T18:03:00;12.00;99.90
45945;DHT22;31655;48.972;10.686;2022-09-25T18:05:26;12.00;99.90
45945;DHT22;31655;48.972;10.686;2022-09-25T18:07:54;12.00;99.90
45945;DHT22;31655;48.972;10.686;2022-09-25T18:10:20;13.20;99.90
45945;DHT22;31655;48.972;10.686;2022-09-25T18:12:45;12.00;99.90
45945;DHT22;31655;48.972;10.686;2022-09-25T18:15:12;11.90;99.90
45945;DHT22;31655;48.972;10.686;2022-09-25T18:17:39;11.90;99.90
45945;DHT22;31655;48.972;10.686;2022-09-25T18:20:06;11.80;99.90
45945;DHT22;31655;48.972;10.686;2022-09-25T18:22:50;11.80;99.90
45945;DHT22;31655;48.972;10.686;2022-09-25T18:25:16;11.60;99.90
45945;DHT22;31655;48.972;10.686;2022-09-25T18:27:42;11.60;99.90
45945;DHT22;31655;48.972;10.686;2022-09-25T18:30:16;11.60;99.90
45945;DHT22;31655;48.972;10.686;2022-09-25T18:35:11;11.50;99.90
45945;DHT22;31655;48.972;10.686;2022-09-25T18:37:39;11.40;99.90
45945;DHT22;31655;48.972;10.686;2022-09-25T18:40:05;11.30;99.90
45945;DHT22;31655;48.972;10.686;2022-09-25T18:42:32;11.30;99.90
45945;DHT22;31655;48.972;10.686;2022-09-25T18:44:58;11.30;99.90